createdAt,value
2019-03-18T00:00:57.940Z,8.56
2019-03-18T00:01:58.210Z,8.61
2019-03-18T00:02:57.705Z,8.58
2019-03-18T00:03:57.987Z,8.45
2019-03-18T00:04:57.737Z,8.61
2019-03-18T00:05:58.072Z,8.58
2019-03-18T00:06:58.306Z,8.55
2019-03-18T00:07:58.325Z,8.56
2019-03-18T00:08:58.074Z,8.64
2019-03-18T00:09:58.349Z,8.49
2019-03-18T00:10:57.856Z,8.58
2019-03-18T00:11:58.125Z,8.51
2019-03-18T00:12:58.410Z,8.48
2019-03-18T00:13:58.162Z,8.45
2019-03-18T00:15:05.912Z,8.48
2019-03-18T00:15:57.934Z,8.45
2019-03-18T00:16:57.947Z,8.51
2019-03-18T00:17:58.232Z,8.42
2019-03-18T00:18:58.515Z,8.53
2019-03-18T00:19:58.011Z,8.51
2019-03-18T00:20:58.286Z,8.49
2019-03-18T00:21:58.304Z,8.45
2019-03-18T00:22:58.058Z,8.46
2019-03-18T00:23:58.080Z,8.45
2019-03-18T00:24:58.620Z,8.44
2019-03-18T00:25:58.113Z,8.49
2019-03-18T00:26:58.650Z,8.51
2019-03-18T00:27:58.413Z,8.45
2019-03-18T00:28:58.430Z,8.53
2019-03-18T00:29:58.178Z,8.36
2019-03-18T00:30:58.458Z,8.38
2019-03-18T00:31:58.218Z,8.42
2019-03-18T00:32:58.576Z,8.45
2019-03-18T00:33:58.511Z,8.41
2019-03-18T00:34:58.559Z,8.44
2019-03-18T00:35:58.549Z,8.31
2019-03-18T00:36:58.582Z,8.38
2019-03-18T00:37:58.584Z,8.37
2019-03-18T00:38:58.338Z,8.37
2019-03-18T00:39:58.624Z,8.37
2019-03-18T00:40:58.643Z,8.37
2019-03-18T00:41:58.689Z,8.34
2019-03-18T00:42:58.672Z,8.38
2019-03-18T00:43:58.691Z,8.36
2019-03-18T00:44:58.709Z,8.36
2019-03-18T00:45:58.726Z,8.33
2019-03-18T00:46:58.741Z,8.38
2019-03-18T00:47:58.497Z,8.3
2019-03-18T00:48:58.512Z,8.33
2019-03-18T00:49:58.797Z,8.34
2019-03-18T00:50:58.551Z,8.34
2019-03-18T00:51:58.829Z,8.33
2019-03-18T00:52:58.855Z,8.31
2019-03-18T00:53:58.608Z,8.28
2019-03-18T00:54:58.880Z,8.34
2019-03-18T00:55:58.894Z,8.36
2019-03-18T00:56:58.914Z,8.3
2019-03-18T00:57:58.673Z,8.3
2019-03-18T00:58:58.953Z,8.28
2019-03-18T00:59:58.974Z,8.31
2019-03-18T01:00:59.249Z,8.31
2019-03-18T01:01:58.742Z,8.28
2019-03-18T01:02:59.025Z,8.28
2019-03-18T01:03:58.778Z,8.26
2019-03-18T01:04:59.324Z,8.27
2019-03-18T01:05:59.351Z,8.31
2019-03-18T01:06:59.093Z,8.23
2019-03-18T01:07:59.376Z,8.26
2019-03-18T01:08:59.126Z,8.27
2019-03-18T01:09:59.146Z,8.26
2019-03-18T01:10:58.900Z,8.27
2019-03-18T01:11:59.441Z,8.2
2019-03-18T01:12:59.194Z,8.26
2019-03-18T01:13:58.951Z,8.2
2019-03-18T01:14:58.968Z,8.19
2019-03-18T01:15:58.986Z,8.2
2019-03-18T01:16:59.022Z,8.23
2019-03-18T01:17:59.032Z,8.2
2019-03-18T01:18:59.299Z,8.2
2019-03-18T01:19:59.616Z,8.18
2019-03-18T01:20:59.337Z,8.2
2019-03-18T01:21:59.357Z,8.2
2019-03-18T01:22:59.373Z,8.18
2019-03-18T01:23:59.647Z,8.15
2019-03-18T01:24:59.419Z,8.1
2019-03-18T01:25:59.173Z,8.16
2019-03-18T01:26:59.700Z,8.18
2019-03-18T01:27:59.463Z,8.13
2019-03-18T01:28:59.227Z,8.16
2019-03-18T01:29:59.761Z,8.18
2019-03-18T01:30:59.509Z,8.19
2019-03-18T01:31:59.793Z,8.16
2019-03-18T01:32:59.289Z,8.12
2019-03-18T01:33:59.296Z,8.19
2019-03-18T01:34:59.576Z,8.19
2019-03-18T01:35:59.596Z,8.2
2019-03-18T01:36:59.354Z,8.23
2019-03-18T01:37:59.630Z,8.15
2019-03-18T01:38:59.909Z,8.12
2019-03-18T01:39:59.668Z,8.19
2019-03-18T01:40:59.681Z,8.16
2019-03-18T01:41:59.435Z,8.15
2019-03-18T01:42:59.462Z,8.16
2019-03-18T01:43:59.470Z,8.12
2019-03-18T01:45:00.014Z,8.16
2019-03-18T01:45:59.772Z,8.12
2019-03-18T01:46:59.788Z,8.16
2019-03-18T01:47:59.803Z,8.16
2019-03-18T01:48:59.557Z,8.15
2019-03-18T01:49:59.581Z,8.18
2019-03-18T01:50:59.590Z,8.06
2019-03-18T01:52:00.133Z,8.19
2019-03-18T01:52:59.629Z,8.09
2019-03-18T01:54:00.175Z,8.08
2019-03-18T01:55:00.357Z,8.12
2019-03-18T01:56:00.205Z,8.15
2019-03-18T01:56:59.696Z,8.05
2019-03-18T01:57:59.979Z,8.23
2019-03-18T01:59:00.006Z,8.1
2019-03-18T02:00:00.012Z,8.12
2019-03-18T02:00:59.766Z,8.05
2019-03-18T02:02:00.061Z,8.12
2019-03-18T02:03:00.327Z,8.16
2019-03-18T02:04:00.343Z,8.12
2019-03-18T02:05:00.367Z,8.12
2019-03-18T02:06:00.114Z,8.09
2019-03-18T02:07:00.133Z,8.15
2019-03-18T02:08:00.174Z,8.12
2019-03-18T02:09:00.173Z,8.08
2019-03-18T02:10:00.450Z,8.05
2019-03-18T02:11:00.469Z,8.09
2019-03-18T02:12:00.502Z,8.12
2019-03-18T02:13:00.252Z,8.08
2019-03-18T02:14:00.332Z,8.06
2019-03-18T02:15:00.372Z,8.08
2019-03-18T02:16:00.301Z,7.97
2019-03-18T02:17:00.569Z,8.1
2019-03-18T02:18:00.324Z,8
2019-03-18T02:19:00.341Z,8.01
2019-03-18T02:20:00.369Z,8.12
2019-03-18T02:21:00.392Z,8.15
2019-03-18T02:22:00.129Z,8.03
2019-03-18T02:23:00.682Z,8.12
2019-03-18T02:24:00.455Z,8.16
2019-03-18T02:25:00.446Z,8
2019-03-18T02:26:00.722Z,8.06
2019-03-18T02:27:00.746Z,8.01
2019-03-18T02:28:00.501Z,8.03
2019-03-18T02:29:00.609Z,7.91
2019-03-18T02:30:00.546Z,8.01
2019-03-18T02:31:00.575Z,7.98
2019-03-18T02:32:00.595Z,7.98
2019-03-18T02:33:00.613Z,8.05
2019-03-18T02:34:00.882Z,7.93
2019-03-18T02:35:00.881Z,8
2019-03-18T02:36:00.398Z,7.97
2019-03-18T02:37:00.663Z,7.95
2019-03-18T02:38:00.678Z,8
2019-03-18T02:39:00.693Z,7.97
2019-03-18T02:40:00.491Z,7.94
2019-03-18T02:41:00.720Z,7.95
2019-03-18T02:42:00.757Z,7.9
2019-03-18T02:43:01.074Z,7.88
2019-03-18T02:44:00.783Z,7.85
2019-03-18T02:45:01.061Z,7.85
2019-03-18T02:46:14.298Z,7.85
2019-03-18T02:47:01.083Z,7.97
2019-03-18T02:48:01.153Z,7.95
2019-03-18T02:49:00.880Z,7.94
2019-03-18T02:50:00.623Z,7.91
2019-03-18T02:51:01.193Z,7.88
2019-03-18T02:52:00.926Z,7.95
2019-03-18T02:53:00.942Z,7.9
2019-03-18T02:54:01.225Z,7.85
2019-03-18T02:55:00.978Z,7.88
2019-03-18T02:56:00.982Z,7.91
2019-03-18T02:57:01.261Z,7.9
2019-03-18T02:58:01.276Z,7.91
2019-03-18T02:59:00.774Z,7.9
2019-03-18T03:00:01.059Z,7.9
2019-03-18T03:01:01.068Z,7.9
2019-03-18T03:02:00.819Z,7.94
2019-03-18T03:03:01.210Z,7.93
2019-03-18T03:04:01.148Z,7.88
2019-03-18T03:05:01.401Z,7.83
2019-03-18T03:06:01.581Z,7.91
2019-03-18T03:07:00.915Z,7.88
2019-03-18T03:08:00.935Z,7.82
2019-03-18T03:09:01.199Z,7.9
2019-03-18T03:10:01.264Z,7.83
2019-03-18T03:11:00.974Z,7.93
2019-03-18T03:12:01.518Z,7.85
2019-03-18T03:13:01.291Z,7.82
2019-03-18T03:14:01.413Z,7.9
2019-03-18T03:15:01.333Z,7.8
2019-03-18T03:16:01.118Z,7.83
2019-03-18T03:17:01.090Z,7.85
2019-03-18T03:18:01.383Z,7.83
2019-03-18T03:19:01.671Z,7.8
2019-03-18T03:20:01.402Z,7.82
2019-03-18T03:21:01.691Z,7.87
2019-03-18T03:22:01.436Z,7.83
2019-03-18T03:23:01.465Z,7.85
2019-03-18T03:24:01.193Z,7.8
2019-03-18T03:25:01.482Z,7.79
2019-03-18T03:26:01.758Z,7.87
2019-03-18T03:27:01.779Z,7.82
2019-03-18T03:28:01.308Z,7.9
2019-03-18T03:29:01.275Z,7.85
2019-03-18T03:30:01.598Z,7.82
2019-03-18T03:31:01.331Z,7.85
2019-03-18T03:32:01.345Z,7.85
2019-03-18T03:33:01.941Z,7.82
2019-03-18T03:34:01.635Z,7.8
2019-03-18T03:35:01.967Z,7.85
2019-03-18T03:36:01.938Z,7.87
2019-03-18T03:37:01.999Z,7.82
2019-03-18T03:38:01.963Z,7.85
2019-03-18T03:39:01.722Z,7.85
2019-03-18T03:40:01.759Z,7.77
2019-03-18T03:41:01.755Z,7.94
2019-03-18T03:42:01.787Z,7.8
2019-03-18T03:43:01.789Z,7.83
2019-03-18T03:44:01.812Z,7.87
2019-03-18T03:45:01.820Z,7.77
2019-03-18T03:46:01.841Z,7.93
2019-03-18T03:47:01.609Z,7.91
2019-03-18T03:48:01.882Z,7.85
2019-03-18T03:49:01.657Z,7.95
2019-03-18T03:50:02.150Z,7.94
2019-03-18T03:51:01.959Z,7.85
2019-03-18T03:52:02.200Z,7.85
2019-03-18T03:53:02.235Z,7.85
2019-03-18T03:54:02.245Z,7.87
2019-03-18T03:55:02.272Z,7.82
2019-03-18T03:56:02.280Z,7.87
2019-03-18T03:57:02.289Z,7.94
2019-03-18T03:58:02.311Z,7.91
2019-03-18T03:59:02.327Z,7.9
2019-03-18T04:00:02.347Z,7.91
2019-03-18T04:01:02.114Z,7.95
2019-03-18T04:02:02.456Z,7.8
2019-03-18T04:03:01.879Z,7.82
2019-03-18T04:04:02.159Z,7.9
2019-03-18T04:05:02.170Z,7.87
2019-03-18T04:06:02.572Z,7.9
2019-03-18T04:07:02.202Z,7.91
2019-03-18T04:08:01.955Z,7.87
2019-03-18T04:09:02.239Z,7.91
2019-03-18T04:10:02.876Z,7.85
2019-03-18T04:11:02.553Z,7.93
2019-03-18T04:12:02.034Z,7.94
2019-03-18T04:13:02.303Z,7.87
2019-03-18T04:14:02.319Z,7.9
2019-03-18T04:15:02.999Z,7.87
2019-03-18T04:16:02.614Z,7.8
2019-03-18T04:17:07.349Z,7.94
2019-03-18T04:18:02.399Z,7.82
2019-03-18T04:19:02.415Z,7.85
2019-03-18T04:20:02.704Z,7.94
2019-03-18T04:21:02.437Z,7.87
2019-03-18T04:22:02.747Z,7.91
2019-03-18T04:23:02.750Z,7.85
2019-03-18T04:24:02.763Z,7.82
2019-03-18T04:25:02.693Z,7.9
2019-03-18T04:26:02.820Z,7.88
2019-03-18T04:27:02.299Z,7.87
2019-03-18T04:28:02.299Z,7.87
2019-03-18T04:29:02.585Z,7.91
2019-03-18T04:30:02.908Z,7.87
2019-03-18T04:31:02.360Z,7.88
2019-03-18T04:32:02.383Z,7.93
2019-03-18T04:33:02.656Z,7.9
2019-03-18T04:34:02.927Z,7.88
2019-03-18T04:35:03.053Z,7.88
2019-03-18T04:36:02.700Z,7.94
2019-03-18T04:37:02.976Z,7.87
2019-03-18T04:38:02.998Z,7.94
2019-03-18T04:39:03.022Z,7.94
2019-03-18T04:40:02.528Z,7.82
2019-03-18T04:41:02.784Z,7.9
2019-03-18T04:42:03.073Z,7.88
2019-03-18T04:43:02.598Z,7.87
2019-03-18T04:44:02.830Z,7.91
2019-03-18T04:45:03.360Z,7.9
2019-03-18T04:46:02.868Z,7.93
2019-03-18T04:47:15.980Z,7.9
2019-03-18T04:48:03.171Z,7.85
2019-03-18T04:49:02.915Z,7.91
2019-03-18T04:50:02.940Z,7.88
2019-03-18T04:51:02.951Z,7.87
2019-03-18T04:52:03.267Z,7.83
2019-03-18T04:53:02.995Z,7.9
2019-03-18T04:54:02.775Z,7.91
2019-03-18T04:55:02.753Z,7.9
2019-03-18T04:56:02.791Z,7.91
2019-03-18T04:57:03.054Z,7.82
2019-03-18T04:58:02.809Z,7.91
2019-03-18T04:59:02.825Z,7.8
2019-03-18T05:00:02.841Z,7.85
2019-03-18T05:01:03.383Z,7.87
2019-03-18T05:02:03.145Z,7.91
2019-03-18T05:03:03.421Z,7.95
2019-03-18T05:04:03.183Z,7.95
2019-03-18T05:05:03.192Z,7.82
2019-03-18T05:06:02.947Z,7.9
2019-03-18T05:07:03.237Z,7.94
2019-03-18T05:08:02.980Z,7.88
2019-03-18T05:09:03.270Z,7.94
2019-03-18T05:10:03.040Z,7.94
2019-03-18T05:11:03.037Z,7.91
2019-03-18T05:12:03.313Z,7.98
2019-03-18T05:13:03.329Z,7.9
2019-03-18T05:14:03.354Z,7.8
2019-03-18T05:15:03.629Z,7.83
2019-03-18T05:16:03.396Z,7.95
2019-03-18T05:17:03.396Z,7.88
2019-03-18T05:18:03.681Z,7.9
2019-03-18T05:19:03.433Z,7.8
2019-03-18T05:20:03.452Z,7.79
2019-03-18T05:21:03.735Z,7.82
2019-03-18T05:22:03.236Z,7.83
2019-03-18T05:23:03.503Z,7.82
2019-03-18T05:24:03.255Z,7.82
2019-03-18T05:25:03.539Z,7.93
2019-03-18T05:26:03.817Z,7.9
2019-03-18T05:27:03.573Z,7.93
2019-03-18T05:28:03.324Z,7.93
2019-03-18T05:29:03.889Z,7.82
2019-03-18T05:30:03.623Z,7.8
2019-03-18T05:31:03.644Z,7.85
2019-03-18T05:32:05.134Z,7.79
2019-03-18T05:33:03.677Z,7.83
2019-03-18T05:34:03.695Z,7.8
2019-03-18T05:35:04.026Z,7.87
2019-03-18T05:36:03.990Z,7.87
2019-03-18T05:37:04.031Z,7.82
2019-03-18T05:38:04.028Z,7.82
2019-03-18T05:39:03.784Z,7.83
2019-03-18T05:40:03.798Z,7.91
2019-03-18T05:41:03.817Z,7.8
2019-03-18T05:42:03.828Z,7.93
2019-03-18T05:43:03.848Z,7.9
2019-03-18T05:44:03.873Z,7.82
2019-03-18T05:45:03.879Z,7.91
2019-03-18T05:46:03.636Z,7.95
2019-03-18T05:47:04.176Z,7.9
2019-03-18T05:48:03.935Z,7.87
2019-03-18T05:49:04.212Z,7.8
2019-03-18T05:50:04.248Z,7.85
2019-03-18T05:51:04.249Z,7.85
2019-03-18T05:52:04.012Z,7.8
2019-03-18T05:53:04.284Z,7.9
2019-03-18T05:54:03.775Z,7.82
2019-03-18T05:55:04.339Z,7.85
2019-03-18T05:56:04.071Z,7.9
2019-03-18T05:57:04.093Z,7.94
2019-03-18T05:58:04.116Z,7.8
2019-03-18T05:59:04.125Z,7.9
2019-03-18T06:00:04.403Z,7.88
2019-03-18T06:01:04.417Z,7.87
2019-03-18T06:02:03.914Z,7.85
2019-03-18T06:03:04.194Z,7.85
2019-03-18T06:04:03.989Z,7.94
2019-03-18T06:05:04.227Z,7.91
2019-03-18T06:06:03.983Z,7.9
2019-03-18T06:07:04.528Z,7.88
2019-03-18T06:08:04.552Z,7.9
2019-03-18T06:09:04.046Z,7.85
2019-03-18T06:10:04.576Z,7.94
2019-03-18T06:11:04.593Z,7.9
2019-03-18T06:12:04.612Z,7.93
2019-03-18T06:13:04.657Z,7.91
2019-03-18T06:14:04.647Z,7.88
2019-03-18T06:15:04.412Z,7.88
2019-03-18T06:16:04.685Z,7.97
2019-03-18T06:17:04.432Z,7.9
2019-03-18T06:18:04.717Z,7.93
2019-03-18T06:19:05.024Z,7.97
2019-03-18T06:20:04.489Z,7.98
2019-03-18T06:21:04.510Z,7.97
2019-03-18T06:22:04.798Z,7.97
2019-03-18T06:23:04.539Z,7.95
2019-03-18T06:24:06.361Z,7.95
2019-03-18T06:25:04.592Z,8.05
2019-03-18T06:26:04.865Z,8.03
2019-03-18T06:27:04.346Z,7.97
2019-03-18T06:28:04.625Z,8
2019-03-18T06:29:04.638Z,8
2019-03-18T06:30:04.861Z,8.03
2019-03-18T06:31:04.958Z,8.01
2019-03-18T06:32:04.694Z,8
2019-03-18T06:33:04.977Z,7.97
2019-03-18T06:34:04.467Z,8.01
2019-03-18T06:35:05.202Z,8.09
2019-03-18T06:36:04.775Z,8.12
2019-03-18T06:37:04.777Z,8.09
2019-03-18T06:38:04.535Z,8.09
2019-03-18T06:39:04.967Z,7.98
2019-03-18T06:40:05.254Z,8.09
2019-03-18T06:41:05.117Z,7.98
2019-03-18T06:42:04.601Z,8.01
2019-03-18T06:43:04.642Z,8.06
2019-03-18T06:44:04.970Z,8.03
2019-03-18T06:45:05.224Z,8.01
2019-03-18T06:46:04.675Z,8
2019-03-18T06:47:04.962Z,8.05
2019-03-18T06:48:11.728Z,8
2019-03-18T06:49:04.989Z,8.13
2019-03-18T06:50:04.866Z,8
2019-03-18T06:51:04.763Z,8
2019-03-18T06:52:05.040Z,7.97
2019-03-18T06:53:05.060Z,8.05
2019-03-18T06:54:05.421Z,8.1
2019-03-18T06:55:05.101Z,8.05
2019-03-18T06:56:05.108Z,8.13
2019-03-18T06:57:05.127Z,8
2019-03-18T06:58:04.883Z,8.01
2019-03-18T06:59:05.218Z,8.13
2019-03-18T07:00:06.932Z,8.08
2019-03-18T07:01:05.467Z,8.08
2019-03-18T07:02:05.478Z,8.1
2019-03-18T07:03:05.232Z,8.09
2019-03-18T07:04:04.994Z,8.01
2019-03-18T07:05:05.276Z,8.09
2019-03-18T07:06:05.553Z,8.1
2019-03-18T07:07:05.043Z,8.12
2019-03-18T07:08:05.317Z,8.12
2019-03-18T07:09:05.074Z,8.12
2019-03-18T07:10:05.366Z,8.16
2019-03-18T07:11:05.375Z,8.08
2019-03-18T07:12:05.651Z,8.16
2019-03-18T07:13:05.409Z,8.13
2019-03-18T07:14:05.165Z,8.12
2019-03-18T07:15:05.445Z,8.13
2019-03-18T07:16:05.199Z,8.1
2019-03-18T07:17:05.215Z,8.19
2019-03-18T07:18:17.415Z,8.18
2019-03-18T07:19:05.257Z,8.19
2019-03-18T07:20:05.275Z,8.1
2019-03-18T07:21:05.814Z,8.13
2019-03-18T07:22:05.561Z,8.15
2019-03-18T07:23:05.861Z,8.1
2019-03-18T07:24:05.337Z,8.18
2019-03-18T07:25:05.899Z,8.15
2019-03-18T07:26:05.638Z,8.19
2019-03-18T07:27:05.393Z,8.23
2019-03-18T07:28:05.934Z,8.16
2019-03-18T07:29:05.699Z,8.18
2019-03-18T07:30:05.738Z,8.23
2019-03-18T07:31:05.717Z,8.23
2019-03-18T07:32:06.006Z,8.19
2019-03-18T07:33:05.841Z,8.27
2019-03-18T07:34:05.516Z,8.2
2019-03-18T07:35:05.531Z,8.27
2019-03-18T07:36:05.809Z,8.24
2019-03-18T07:37:05.836Z,8.2
2019-03-18T07:38:05.848Z,8.2
2019-03-18T07:39:05.863Z,8.23
2019-03-18T07:40:05.874Z,8.19
2019-03-18T07:41:05.898Z,8.26
2019-03-18T07:42:06.183Z,8.19
2019-03-18T07:43:05.667Z,8.2
2019-03-18T07:44:05.947Z,8.26
2019-03-18T07:45:05.967Z,8.2
2019-03-18T07:46:05.725Z,8.27
2019-03-18T07:47:05.998Z,8.2
2019-03-18T07:48:06.547Z,8.2
2019-03-18T07:49:06.048Z,8.19
2019-03-18T07:50:06.069Z,8.15
2019-03-18T07:51:06.075Z,8.31
2019-03-18T07:52:06.349Z,8.27
2019-03-18T07:53:05.894Z,8.31
2019-03-18T07:54:05.911Z,8.24
2019-03-18T07:55:06.429Z,8.26
2019-03-18T07:56:06.157Z,8.28
2019-03-18T07:57:06.183Z,8.33
2019-03-18T07:58:05.946Z,8.28
2019-03-18T07:59:05.947Z,8.33
2019-03-18T08:00:06.232Z,8.33
2019-03-18T08:01:06.592Z,8.33
2019-03-18T08:02:06.372Z,8.37
2019-03-18T08:03:08.163Z,8.38
2019-03-18T08:04:06.302Z,8.42
2019-03-18T08:05:06.320Z,8.41
2019-03-18T08:06:06.335Z,8.45
2019-03-18T08:07:06.623Z,8.53
2019-03-18T08:08:06.374Z,8.51
2019-03-18T08:09:06.400Z,8.42
2019-03-18T08:10:06.671Z,8.45
2019-03-18T08:11:06.469Z,8.51
2019-03-18T08:12:06.715Z,8.41
2019-03-18T08:13:06.464Z,8.38
2019-03-18T08:14:06.478Z,8.36
2019-03-18T08:15:06.763Z,8.44
2019-03-18T08:16:06.252Z,8.42
2019-03-18T08:17:06.795Z,8.42
2019-03-18T08:18:06.812Z,8.41
2019-03-18T08:19:06.562Z,8.37
2019-03-18T08:20:08.309Z,8.38
2019-03-18T08:21:06.617Z,8.37
2019-03-18T08:22:06.638Z,8.37
2019-03-18T08:23:06.640Z,8.51
2019-03-18T08:24:06.390Z,8.56
2019-03-18T08:25:06.672Z,8.45
2019-03-18T08:26:06.952Z,8.46
2019-03-18T08:27:06.712Z,8.45
2019-03-18T08:28:06.726Z,8.48
2019-03-18T08:29:06.747Z,8.58
2019-03-18T08:30:06.780Z,8.6
2019-03-18T08:31:07.039Z,8.52
2019-03-18T08:32:06.799Z,8.49
2019-03-18T08:33:07.075Z,8.56
2019-03-18T08:34:06.833Z,8.56
2019-03-18T08:35:07.112Z,8.53
2019-03-18T08:36:06.875Z,8.56
2019-03-18T08:37:06.885Z,8.63
2019-03-18T08:38:06.637Z,8.56
2019-03-18T08:39:07.178Z,8.66
2019-03-18T08:40:06.679Z,8.58
2019-03-18T08:41:06.687Z,8.7
2019-03-18T08:42:06.983Z,8.56
2019-03-18T08:43:06.743Z,8.63
2019-03-18T08:44:06.748Z,8.64
2019-03-18T08:45:07.022Z,8.58
2019-03-18T08:46:07.108Z,8.63
2019-03-18T08:47:07.061Z,8.63
2019-03-18T08:48:06.817Z,8.56
2019-03-18T08:49:07.363Z,8.61
2019-03-18T08:50:07.129Z,8.63
2019-03-18T08:51:07.128Z,8.61
2019-03-18T08:52:07.146Z,8.58
2019-03-18T08:53:07.429Z,8.63
2019-03-18T08:54:06.922Z,8.58
2019-03-18T08:55:07.469Z,8.6
2019-03-18T08:56:07.224Z,8.61
2019-03-18T08:57:07.242Z,8.61
2019-03-18T08:58:07.523Z,8.6
2019-03-18T08:59:07.004Z,8.63
2019-03-18T09:00:07.445Z,8.6
2019-03-18T09:01:07.043Z,8.6
2019-03-18T09:02:07.060Z,8.64
2019-03-18T09:03:07.422Z,8.69
2019-03-18T09:04:07.627Z,8.64
2019-03-18T09:05:07.129Z,8.73
2019-03-18T09:06:07.209Z,8.64
2019-03-18T09:07:07.420Z,8.66
2019-03-18T09:08:07.169Z,8.71
2019-03-18T09:09:07.456Z,8.74
2019-03-18T09:10:07.203Z,8.7
2019-03-18T09:11:07.483Z,8.69
2019-03-18T09:12:07.506Z,8.78
2019-03-18T09:13:07.521Z,8.71
2019-03-18T09:14:07.543Z,8.79
2019-03-18T09:15:07.560Z,8.76
2019-03-18T09:16:07.574Z,8.82
2019-03-18T09:17:07.591Z,8.84
2019-03-18T09:18:07.624Z,8.74
2019-03-18T09:19:13.413Z,8.85
2019-03-18T09:20:07.905Z,8.85
2019-03-18T09:21:07.660Z,8.97
2019-03-18T09:22:07.675Z,8.89
2019-03-18T09:23:07.450Z,8.88
2019-03-18T09:24:07.719Z,8.97
2019-03-18T09:25:07.731Z,9.02
2019-03-18T09:26:07.488Z,8.97
2019-03-18T09:27:08.034Z,8.94
2019-03-18T09:28:07.537Z,9.02
2019-03-18T09:29:07.551Z,8.99
2019-03-18T09:30:07.562Z,9.13
2019-03-18T09:31:08.127Z,9.08
2019-03-18T09:32:07.864Z,9.13
2019-03-18T09:33:07.880Z,9.06
2019-03-18T09:34:07.633Z,9.18
2019-03-18T09:35:07.929Z,9.19
2019-03-18T09:36:07.930Z,9.22
2019-03-18T09:37:07.683Z,9.14
2019-03-18T09:38:07.704Z,9.18
2019-03-18T09:39:07.985Z,9.16
2019-03-18T09:40:08.105Z,9.16
2019-03-18T09:41:08.024Z,9.23
2019-03-18T09:42:08.037Z,9.14
2019-03-18T09:43:08.117Z,9.28
2019-03-18T09:44:07.810Z,9.22
2019-03-18T09:45:08.092Z,9.21
2019-03-18T09:46:07.848Z,9.25
2019-03-18T09:47:07.875Z,9.21
2019-03-18T09:48:08.148Z,9.26
2019-03-18T09:49:20.511Z,9.21
2019-03-18T09:50:08.182Z,9.26
2019-03-18T09:51:09.612Z,9.28
2019-03-18T09:52:08.227Z,9.22
2019-03-18T09:53:08.241Z,9.28
2019-03-18T09:54:08.254Z,9.29
2019-03-18T09:55:08.019Z,9.21
2019-03-18T09:56:08.293Z,9.28
2019-03-18T09:57:08.310Z,9.29
2019-03-18T09:58:08.063Z,9.23
2019-03-18T09:59:08.087Z,9.25
2019-03-18T10:00:08.374Z,9.26
2019-03-18T10:01:08.139Z,9.25
2019-03-18T10:02:08.400Z,9.32
2019-03-18T10:03:08.154Z,9.46
2019-03-18T10:04:08.448Z,9.41
2019-03-18T10:05:08.190Z,9.47
2019-03-18T10:06:08.751Z,9.44
2019-03-18T10:07:08.495Z,9.5
2019-03-18T10:08:08.517Z,9.44
2019-03-18T10:09:08.792Z,9.5
2019-03-18T10:10:08.808Z,9.46
2019-03-18T10:11:08.569Z,9.58
2019-03-18T10:12:08.594Z,9.55
2019-03-18T10:13:08.340Z,9.51
2019-03-18T10:14:08.620Z,9.56
2019-03-18T10:15:08.649Z,9.56
2019-03-18T10:16:08.919Z,9.56
2019-03-18T10:17:14.144Z,9.65
2019-03-18T10:18:08.709Z,9.55
2019-03-18T10:19:08.710Z,9.62
2019-03-18T10:20:09.001Z,9.55
2019-03-18T10:21:09.027Z,9.65
2019-03-18T10:22:08.520Z,9.66
2019-03-18T10:23:09.054Z,9.69
2019-03-18T10:24:09.074Z,9.73
2019-03-18T10:25:08.918Z,9.69
2019-03-18T10:26:09.113Z,9.68
2019-03-18T10:27:08.867Z,9.68
2019-03-18T10:28:08.890Z,9.66
2019-03-18T10:29:08.635Z,9.68
2019-03-18T10:30:08.660Z,9.73
2019-03-18T10:31:08.932Z,9.69
2019-03-18T10:32:08.949Z,9.72
2019-03-18T10:33:09.017Z,9.69
2019-03-18T10:34:09.068Z,9.74
2019-03-18T10:35:08.768Z,9.72
2019-03-18T10:36:08.783Z,9.68
2019-03-18T10:37:09.051Z,9.76
2019-03-18T10:38:09.069Z,9.68
2019-03-18T10:39:08.817Z,9.65
2019-03-18T10:40:08.841Z,9.74
2019-03-18T10:41:09.540Z,9.73
2019-03-18T10:42:09.153Z,9.72
2019-03-18T10:43:08.910Z,9.73
2019-03-18T10:44:09.436Z,9.79
2019-03-18T10:45:09.197Z,9.73
2019-03-18T10:46:09.483Z,9.69
2019-03-18T10:47:09.231Z,9.74
2019-03-18T10:48:09.250Z,9.77
2019-03-18T10:49:09.269Z,9.77
2019-03-18T10:50:09.547Z,9.77
2019-03-18T10:51:09.041Z,9.84
2019-03-18T10:52:09.094Z,9.76
2019-03-18T10:53:09.348Z,9.77
2019-03-18T10:54:09.428Z,9.92
2019-03-18T10:55:09.394Z,9.86
2019-03-18T10:56:12.805Z,9.86
2019-03-18T10:57:09.210Z,9.89
2019-03-18T10:58:09.702Z,9.92
2019-03-18T10:59:09.194Z,9.91
2019-03-18T11:00:09.473Z,9.94
2019-03-18T11:01:09.383Z,9.92
2019-03-18T11:02:09.248Z,9.94
2019-03-18T11:03:09.533Z,10.04
2019-03-18T11:04:09.284Z,9.98
2019-03-18T11:05:12.472Z,10.1
2019-03-18T11:06:09.584Z,10.1
2019-03-18T11:07:09.341Z,10.07
2019-03-18T11:08:09.888Z,10.12
2019-03-18T11:09:09.905Z,10.01
2019-03-18T11:10:12.441Z,10.07
2019-03-18T11:11:09.675Z,10.16
2019-03-18T11:12:09.743Z,10.02
2019-03-18T11:13:09.717Z,10.13
2019-03-18T11:14:09.729Z,10.12
2019-03-18T11:15:09.754Z,10.05
2019-03-18T11:16:09.772Z,10.07
2019-03-18T11:17:09.788Z,10.05
2019-03-18T11:18:09.547Z,9.99
2019-03-18T11:19:09.911Z,10.05
2019-03-18T11:20:09.584Z,10.02
2019-03-18T11:21:09.601Z,10.02
2019-03-18T11:22:10.141Z,9.98
2019-03-18T11:23:09.647Z,9.92
2019-03-18T11:24:10.192Z,9.94
2019-03-18T11:25:10.223Z,10.01
2019-03-18T11:26:10.227Z,9.98
2019-03-18T11:27:09.721Z,10.01
2019-03-18T11:28:10.255Z,10.04
2019-03-18T11:29:10.912Z,10.02
2019-03-18T11:30:10.033Z,10.09
2019-03-18T11:31:10.055Z,10.12
2019-03-18T11:32:10.068Z,10.13
2019-03-18T11:33:10.084Z,10.15
2019-03-18T11:34:10.123Z,10.07
2019-03-18T11:35:10.166Z,10.1
2019-03-18T11:36:09.881Z,10.07
2019-03-18T11:37:10.165Z,10.12
2019-03-18T11:38:10.182Z,10.15
2019-03-18T11:39:10.463Z,10.13
2019-03-18T11:40:10.030Z,10.15
2019-03-18T11:41:10.505Z,10.25
2019-03-18T11:42:10.271Z,10.25
2019-03-18T11:43:10.296Z,10.28
2019-03-18T11:44:10.345Z,10.33
2019-03-18T11:45:12.507Z,10.41
2019-03-18T11:46:10.596Z,10.41
2019-03-18T11:47:10.613Z,10.35
2019-03-18T11:48:10.115Z,10.42
2019-03-18T11:49:10.708Z,10.33
2019-03-18T11:50:15.847Z,10.42
2019-03-18T11:51:10.432Z,10.41
2019-03-18T11:52:10.188Z,10.34
2019-03-18T11:53:18.887Z,10.38
2019-03-18T11:54:10.871Z,10.4
2019-03-18T11:55:10.766Z,10.56
2019-03-18T11:56:10.401Z,10.51
2019-03-18T11:57:10.279Z,10.49
2019-03-18T11:58:10.564Z,10.53
2019-03-18T11:59:10.578Z,10.51
2019-03-18T12:00:10.867Z,10.56
2019-03-18T12:01:10.621Z,10.42
2019-03-18T12:02:10.905Z,10.49
2019-03-18T12:03:10.396Z,10.38
2019-03-18T12:04:10.673Z,10.48
2019-03-18T12:05:10.695Z,10.48
2019-03-18T12:06:10.450Z,10.35
2019-03-18T12:07:10.730Z,10.42
2019-03-18T12:08:10.750Z,10.34
2019-03-18T12:09:10.769Z,10.37
2019-03-18T12:10:10.606Z,10.31
2019-03-18T12:11:10.807Z,10.31
2019-03-18T12:12:13.253Z,10.23
2019-03-18T12:13:11.109Z,10.26
2019-03-18T12:14:10.860Z,10.22
2019-03-18T12:15:10.624Z,10.2
2019-03-18T12:16:10.953Z,10.16
2019-03-18T12:17:10.917Z,10.16
2019-03-18T12:18:10.695Z,10.09
2019-03-18T12:19:11.015Z,10.09
2019-03-18T12:20:23.144Z,10.1
2019-03-18T12:21:10.996Z,10.09
2019-03-18T12:22:10.751Z,10.12
2019-03-18T12:23:10.777Z,10.09
2019-03-18T12:24:11.143Z,10.02
2019-03-18T12:25:11.074Z,10.09
2019-03-18T12:26:11.362Z,10.09
2019-03-18T12:27:11.108Z,10.02
2019-03-18T12:28:11.144Z,9.98
2019-03-18T12:29:11.410Z,9.99
2019-03-18T12:30:10.900Z,10.04
2019-03-18T12:31:11.459Z,10.01
2019-03-18T12:32:11.217Z,10.04
2019-03-18T12:33:10.964Z,10.04
2019-03-18T12:34:11.505Z,9.92
2019-03-18T12:35:11.276Z,9.91
2019-03-18T12:36:11.520Z,9.87
2019-03-18T12:37:11.319Z,9.98
2019-03-18T12:38:11.580Z,9.94
2019-03-18T12:39:11.347Z,10.01
2019-03-18T12:40:11.348Z,9.95
2019-03-18T12:41:11.637Z,9.94
2019-03-18T12:42:11.664Z,9.98
2019-03-18T12:43:11.670Z,9.97
2019-03-18T12:44:11.692Z,10.01
2019-03-18T12:45:13.550Z,10.02
2019-03-18T12:46:11.727Z,10.04
2019-03-18T12:47:11.483Z,10.05
2019-03-18T12:48:11.501Z,10.05
2019-03-18T12:49:11.790Z,10.07
2019-03-18T12:50:11.536Z,10.07
2019-03-18T12:51:11.301Z,10.02
2019-03-18T12:52:11.314Z,9.95
2019-03-18T12:53:11.865Z,10.09
2019-03-18T12:54:11.351Z,10.13
2019-03-18T12:55:11.635Z,10.1
2019-03-18T12:56:11.664Z,10.04
2019-03-18T12:57:11.670Z,10.1
2019-03-18T12:58:11.426Z,9.97
2019-03-18T12:59:11.450Z,10.07
2019-03-18T13:00:11.740Z,9.97
2019-03-18T13:01:17.204Z,9.95
2019-03-18T13:02:11.765Z,9.97
2019-03-18T13:03:11.519Z,9.97
2019-03-18T13:04:12.066Z,9.89
2019-03-18T13:05:11.559Z,9.86
2019-03-18T13:06:11.847Z,9.91
2019-03-18T13:07:11.682Z,9.94
2019-03-18T13:08:12.145Z,9.87
2019-03-18T13:09:11.897Z,9.91
2019-03-18T13:10:11.755Z,9.89
2019-03-18T13:11:12.194Z,9.83
2019-03-18T13:12:13.217Z,9.87
2019-03-18T13:13:11.973Z,9.92
2019-03-18T13:14:11.988Z,9.94
2019-03-18T13:15:12.275Z,9.86
2019-03-18T13:16:12.037Z,9.91
2019-03-18T13:17:12.048Z,10.05
2019-03-18T13:18:12.062Z,10.07
2019-03-18T13:19:12.348Z,10.12
2019-03-18T13:20:11.850Z,10.1